createdAt,value
2018-07-07T00:03:41.560Z,6.03
2018-07-07T00:08:45.380Z,5.77
2018-07-07T00:13:49.464Z,5.77
2018-07-07T00:18:53.321Z,6.07
2018-07-07T00:23:57.380Z,6.30
2018-07-07T00:29:01.949Z,6.63
2018-07-07T00:34:06.058Z,6.17
2018-07-07T00:39:09.892Z,6.43
2018-07-07T00:44:13.740Z,6.27
2018-07-07T00:49:18.091Z,6.10
2018-07-07T00:54:22.370Z,6.33
2018-07-07T00:59:26.260Z,6.90
2018-07-07T01:04:30.083Z,6.20
2018-07-07T01:09:33.940Z,6.97
2018-07-07T01:14:38.027Z,6.70
2018-07-07T01:19:42.404Z,6.70
2018-07-07T01:24:46.253Z,6.87
2018-07-07T01:29:50.079Z,7.33
2018-07-07T01:34:54.193Z,7.63
2018-07-07T01:39:58.013Z,7.63
2018-07-07T01:45:01.850Z,7.67
2018-07-07T01:50:05.712Z,7.33
2018-07-07T01:55:09.537Z,7.83
2018-07-07T02:00:13.352Z,7.57
2018-07-07T02:05:17.182Z,7.57
2018-07-07T02:10:21.303Z,7.27
2018-07-07T02:15:25.371Z,7.20
2018-07-07T02:20:29.175Z,7.53
2018-07-07T02:25:33.293Z,7.83
2018-07-07T02:30:37.376Z,7.40
2018-07-07T02:35:41.452Z,7.20
2018-07-07T02:40:45.330Z,7.37
2018-07-07T02:45:49.148Z,7.80
2018-07-07T02:50:53.188Z,7.07
2018-07-07T02:55:57.245Z,7.37
2018-07-07T03:01:01.292Z,7.30
2018-07-07T03:06:05.091Z,7.20
2018-07-07T03:11:08.904Z,7.50
2018-07-07T03:16:12.988Z,7.17
2018-07-07T03:21:17.068Z,7.17
2018-07-07T03:26:20.874Z,7.83
2018-07-07T03:31:24.664Z,6.87
2018-07-07T03:36:28.480Z,7.20
2018-07-07T03:41:32.541Z,6.67
2018-07-07T03:46:36.590Z,7.30
2018-07-07T03:51:40.397Z,7.27
2018-07-07T03:56:44.435Z,7.27
2018-07-07T04:01:48.471Z,7.17
2018-07-07T04:06:52.493Z,7.20
2018-07-07T04:11:56.280Z,7.73
2018-07-07T04:17:00.110Z,7.50
2018-07-07T04:22:03.897Z,7.20
2018-07-07T04:27:07.704Z,7.60
2018-07-07T04:32:11.530Z,8.40
2018-07-07T04:37:15.597Z,8.13
2018-07-07T04:42:19.639Z,7.40
2018-07-07T04:47:23.443Z,7.80
2018-07-07T04:52:27.297Z,7.70
2018-07-07T04:57:31.373Z,7.87
2018-07-07T05:02:35.610Z,7.53
2018-07-07T05:07:39.410Z,7.70
2018-07-07T05:12:43.313Z,7.37
2018-07-07T05:17:47.413Z,7.47
2018-07-07T05:22:51.517Z,8.23
2018-07-07T05:27:55.335Z,6.83
2018-07-07T05:33:00.154Z,7.63
2018-07-07T05:38:04.933Z,7.87
2018-07-07T05:43:08.780Z,8.17
2018-07-07T05:48:12.615Z,7.90
2018-07-07T05:53:16.575Z,8.23
2018-07-07T05:58:20.445Z,9.20
2018-07-07T06:03:24.587Z,8.23
2018-07-07T06:08:28.810Z,7.60
2018-07-07T06:13:32.714Z,7.70
2018-07-07T06:18:36.593Z,7.30
2018-07-07T06:23:40.527Z,7.47
2018-07-07T06:28:44.377Z,8.00
2018-07-07T06:33:48.662Z,8.67
2018-07-07T06:38:52.498Z,8.67
2018-07-07T06:43:56.323Z,8.63
2018-07-07T06:49:00.534Z,8.00
2018-07-07T06:54:04.378Z,6.43
2018-07-07T06:59:08.294Z,8.47
2018-07-07T07:04:12.209Z,8.33
2018-07-07T07:09:16.403Z,8.53
2018-07-07T07:14:20.277Z,10.20
2018-07-07T07:19:24.149Z,9.50
2018-07-07T07:24:27.994Z,9.23
2018-07-07T07:29:31.808Z,9.97
2018-07-07T07:34:36.789Z,9.30
2018-07-07T07:39:40.622Z,8.63
2018-07-07T07:44:44.413Z,8.23
2018-07-07T07:49:48.253Z,8.90
2018-07-07T07:54:52.041Z,8.97
2018-07-07T07:59:56.385Z,6.83
2018-07-07T08:05:00.227Z,7.10
2018-07-07T08:10:04.274Z,5.83
2018-07-07T08:15:08.415Z,6.17
2018-07-07T08:20:12.200Z,4.28
2018-07-07T08:25:16.229Z,4.25
2018-07-07T08:30:20.053Z,4.35
2018-07-07T08:35:24.086Z,3.72
2018-07-07T08:40:28.134Z,3.40
2018-07-07T08:45:32.433Z,2.98
2018-07-07T08:50:36.321Z,3.30
2018-07-07T08:55:40.117Z,3.27
2018-07-07T09:00:44.177Z,3.10
2018-07-07T09:05:48.042Z,3.03
2018-07-07T09:10:51.840Z,3.30
2018-07-07T09:15:55.709Z,3.00
2018-07-07T09:20:59.773Z,3.17
2018-07-07T09:26:03.552Z,3.42
2018-07-07T09:31:08.621Z,4.08
2018-07-07T09:36:12.525Z,3.62
2018-07-07T09:41:16.372Z,3.55
2018-07-07T09:46:20.381Z,3.80
2018-07-07T09:51:24.181Z,3.90
2018-07-07T09:56:28.222Z,4.60
2018-07-07T10:01:32.103Z,4.22
2018-07-07T10:06:35.880Z,4.60
2018-07-07T10:11:39.961Z,4.20
2018-07-07T10:16:43.749Z,3.27
2018-07-07T10:21:47.960Z,3.70
2018-07-07T10:26:51.740Z,3.80
2018-07-07T10:31:55.563Z,3.13
2018-07-07T10:36:59.614Z,2.93
2018-07-07T10:42:03.735Z,2.93
2018-07-07T10:47:14.584Z,3.00
2018-07-07T10:52:18.482Z,2.70
2018-07-07T10:57:22.380Z,2.90
2018-07-07T11:02:26.194Z,2.80
2018-07-07T11:07:30.023Z,2.63
2018-07-07T11:12:33.837Z,2.90
2018-07-07T11:17:37.874Z,2.60
2018-07-07T11:22:41.680Z,2.20
2018-07-07T11:27:45.839Z,2.47
2018-07-07T11:32:49.657Z,2.20
2018-07-07T11:37:53.560Z,2.13
2018-07-07T11:42:57.652Z,1.90
2018-07-07T11:48:01.725Z,2.20
2018-07-07T11:53:06.080Z,2.20
2018-07-07T11:58:09.870Z,2.30
2018-07-07T12:03:13.673Z,1.83
2018-07-07T12:08:17.734Z,2.03
2018-07-07T12:13:21.518Z,2.20
2018-07-07T12:18:25.310Z,2.00
2018-07-07T12:23:29.115Z,2.20
2018-07-07T12:28:32.920Z,2.20
2018-07-07T12:33:36.961Z,1.90
2018-07-07T12:38:40.965Z,2.23
2018-07-07T12:43:44.768Z,1.90
2018-07-07T12:48:48.826Z,2.27
2018-07-07T12:53:52.665Z,2.00
2018-07-07T12:58:56.469Z,2.00
2018-07-07T13:04:00.309Z,2.10
2018-07-07T13:09:04.969Z,2.00
2018-07-07T13:14:09.033Z,2.30
2018-07-07T13:19:13.139Z,2.40
2018-07-07T13:24:17.231Z,2.00
2018-07-07T13:29:21.024Z,2.10
2018-07-07T13:34:24.904Z,2.53
2018-07-07T13:39:28.913Z,2.80
2018-07-07T13:44:32.929Z,2.47
2018-07-07T13:49:38.558Z,2.70
2018-07-07T13:54:42.365Z,2.50
2018-07-07T13:59:46.406Z,2.60
2018-07-07T14:04:50.468Z,2.50
2018-07-07T14:09:54.580Z,2.47
2018-07-07T14:14:58.381Z,2.43
2018-07-07T14:20:02.160Z,2.20
2018-07-07T14:25:06.265Z,2.20
2018-07-07T14:30:10.068Z,2.20
2018-07-07T14:35:13.890Z,1.90
2018-07-07T14:40:17.715Z,2.30
2018-07-07T14:45:26.187Z,2.23
2018-07-07T14:50:30.281Z,2.27
2018-07-07T14:55:34.296Z,2.20
2018-07-07T15:00:38.108Z,2.03
2018-07-07T15:05:41.978Z,2.10
2018-07-07T15:10:45.760Z,2.30
2018-07-07T15:15:49.797Z,2.10
2018-07-07T15:20:54.050Z,2.27
2018-07-07T15:25:58.436Z,2.47
2018-07-07T15:31:02.225Z,2.27
2018-07-07T15:36:06.025Z,2.50
2018-07-07T15:41:10.454Z,2.10
2018-07-07T15:46:14.237Z,2.13
2018-07-07T15:51:18.088Z,2.10
2018-07-07T15:56:21.917Z,2.10
2018-07-07T16:01:26.363Z,2.00
2018-07-07T16:06:30.156Z,1.90
2018-07-07T16:11:33.991Z,1.80
2018-07-07T16:16:38.254Z,1.80
2018-07-07T16:21:42.074Z,2.40
2018-07-07T16:26:46.102Z,2.00
2018-07-07T16:31:50.138Z,2.40
2018-07-07T16:36:53.966Z,2.40
2018-07-07T16:41:58.076Z,2.03
2018-07-07T16:47:02.828Z,2.50
2018-07-07T16:52:06.672Z,2.03
2018-07-07T16:57:14.910Z,2.20
2018-07-07T17:02:21.118Z,2.30
2018-07-07T17:07:28.884Z,2.10
2018-07-07T17:12:32.683Z,2.10
2018-07-07T17:17:36.457Z,2.03
2018-07-07T17:22:40.240Z,2.07
2018-07-07T17:27:44.029Z,1.93
2018-07-07T17:32:48.240Z,2.00
2018-07-07T17:37:52.038Z,2.10
2018-07-07T17:42:55.864Z,2.23
2018-07-07T17:48:00.257Z,1.93
2018-07-07T17:53:04.281Z,2.20
2018-07-07T17:58:08.056Z,2.33
2018-07-07T18:03:11.905Z,2.60
2018-07-07T18:08:15.716Z,2.10
2018-07-07T18:13:19.509Z,2.07
2018-07-07T18:18:23.294Z,2.00
2018-07-07T18:23:27.133Z,2.00
2018-07-07T18:28:30.915Z,1.70
2018-07-07T18:33:34.810Z,2.10
2018-07-07T18:38:38.857Z,2.10
2018-07-07T18:43:42.889Z,2.00
2018-07-07T18:48:46.715Z,2.10
2018-07-07T18:53:50.506Z,2.43
2018-07-07T18:58:54.324Z,2.10
2018-07-07T19:03:58.671Z,1.70
2018-07-07T19:09:02.525Z,1.90
2018-07-07T19:14:06.311Z,1.77
2018-07-07T19:19:10.380Z,2.03
2018-07-07T19:24:19.762Z,2.03
2018-07-07T19:29:23.806Z,1.83
2018-07-07T19:34:32.977Z,1.70
2018-07-07T19:39:37.720Z,1.83
2018-07-07T19:44:41.534Z,2.00
2018-07-07T19:49:45.333Z,2.15
2018-07-07T19:54:49.366Z,1.97
2018-07-07T19:59:53.394Z,1.97
2018-07-07T20:04:57.189Z,2.07
2018-07-07T20:10:01.007Z,1.90
2018-07-07T20:15:04.836Z,2.00
2018-07-07T20:20:45.343Z,2.00
2018-07-07T20:25:54.637Z,2.20
2018-07-07T20:30:59.342Z,1.77
2018-07-07T20:36:03.357Z,2.10
2018-07-07T20:41:07.156Z,2.10
2018-07-07T20:46:10.946Z,2.20
2018-07-07T20:51:14.741Z,2.10
2018-07-07T20:56:18.616Z,2.30
2018-07-07T21:01:22.405Z,2.00
2018-07-07T21:06:26.295Z,2.40
2018-07-07T21:11:30.309Z,2.30
2018-07-07T21:16:34.348Z,2.40
2018-07-07T21:21:38.373Z,2.20
2018-07-07T21:26:42.257Z,2.10
2018-07-07T21:31:46.062Z,2.20
2018-07-07T21:36:50.574Z,1.97
2018-07-07T21:41:54.366Z,2.40
2018-07-07T21:46:58.161Z,2.13
2018-07-07T21:52:02.219Z,2.37
2018-07-07T21:57:07.184Z,2.30
2018-07-07T22:02:16.416Z,2.23
2018-07-07T22:07:28.376Z,2.30
2018-07-07T22:12:32.466Z,2.00
2018-07-07T22:17:36.570Z,2.27
2018-07-07T22:22:40.605Z,2.40
2018-07-07T22:27:44.655Z,2.30
2018-07-07T22:32:48.446Z,2.53
2018-07-07T22:37:52.492Z,2.00
2018-07-07T22:42:56.295Z,2.23
2018-07-07T22:48:00.341Z,2.40
2018-07-07T22:53:04.389Z,2.20
2018-07-07T22:58:08.315Z,2.40
2018-07-07T23:03:12.928Z,2.13
2018-07-07T23:08:16.808Z,2.20
2018-07-07T23:13:20.550Z,2.20
2018-07-07T23:18:24.332Z,2.03
2018-07-07T23:23:28.135Z,1.73
2018-07-07T23:28:31.922Z,2.20
2018-07-07T23:33:35.740Z,2.33
2018-07-07T23:38:40.936Z,2.10
2018-07-07T23:43:44.765Z,2.17
2018-07-07T23:48:48.571Z,2.10
2018-07-07T23:53:52.416Z,2.50
2018-07-07T23:58:56.742Z,2.47
